EW4607 Soria ES current weather conditions

sailwx.info

Wind from 024 at 6 knots gusting 11

Air temperature 11.1° C
Dewpoint 9.2° C

Last reported at 2020-Jun-06 22:00 UTC.
Time now 2020-Jun-06 23:13 UTC

Location: N 41°46' W 002°28'.
View on Google Maps.

See reports from other nearby stations

  
Tides and Currents Weather Stations Pressure Air Temp Water Temp Dewpoint Dewpoint Depression Visibility Wind Speed Wind Dir Waves Ship Positions
date/time (UTC)wind fromknots sea level pressurealtimeterstation pressurevisibilityair tempwater tempwave heightnotes
2020-Jun-06 22:00 024 6 gusting 11 11.1
2020-Jun-06 21:45 020 4 gusting 9 11.1
2020-Jun-06 21:30 035 5 gusting 9 11.1
2020-Jun-06 21:15 023 5 gusting 7 11.1
2020-Jun-06 21:00 017 6 gusting 11 11.1
2020-Jun-06 20:45 032 6 gusting 13 11.1
2020-Jun-06 20:30 033 6 gusting 11 11.7
2020-Jun-06 20:16 061 8 gusting 15 12.2
2020-Jun-06 20:01 328 7 gusting 12 12.2
2020-Jun-06 19:46 345 10 gusting 15 12.2
2020-Jun-06 19:31 020 9 gusting 16 12.2
2020-Jun-06 19:16 005 3 gusting 8 12.8
2020-Jun-06 19:01 023 6 gusting 14 12.8
2020-Jun-06 18:46 006 6 gusting 11 13.3
2020-Jun-06 18:31 233 1 gusting 14 13.9
2020-Jun-06 18:16 292 6 gusting 10 15.0
2020-Jun-06 18:01 322 0 gusting 4 16.1
2020-Jun-06 17:47 188 0 gusting 1 16.1
2020-Jun-06 17:31 313 15.0
2020-Jun-06 17:16 323 0 gusting 8 15.0
2020-Jun-06 16:46 214 15.6
2020-Jun-06 16:31 233 0 gusting 8 16.1
2020-Jun-06 16:16 215 6 gusting 13 17.2
2020-Jun-06 16:01 230 1 gusting 6 17.8
2020-Jun-06 15:46 310 0 gusting 3 18.3
2020-Jun-06 15:30 303 18.9
2020-Jun-06 15:17 125 18.9
2020-Jun-06 15:01 143 1 gusting 8 18.3
2020-Jun-06 14:45 120 3 gusting 10 18.3
2020-Jun-06 14:32 211 10 gusting 17 20.0
2020-Jun-06 14:16 210 5 gusting 10 21.7
2020-Jun-06 14:01 205 5 gusting 10 22.2
2020-Jun-06 13:46 191 3 gusting 9 22.2
2020-Jun-06 13:30 233 6 gusting 12 21.1
2020-Jun-06 13:15 202 3 gusting 10 22.2
2020-Jun-06 13:00 146 3 gusting 10 21.7
2020-Jun-06 12:46 124 6 gusting 13 21.7
2020-Jun-06 12:30 168 3 gusting 10 22.2
2020-Jun-06 12:15 231 5 gusting 10 22.2
2020-Jun-06 12:00 207 2 gusting 7 22.2
2020-Jun-06 11:45 343 0 gusting 9 21.7
2020-Jun-06 11:31 258 1 gusting 7 21.7
2020-Jun-06 11:15 250 2 gusting 13 21.1
2020-Jun-06 11:00 231 5 gusting 11 21.1
2020-Jun-06 10:45 249 4 gusting 11 20.6
2020-Jun-06 10:30 140 4 20.0
2020-Jun-06 10:15 195 4 gusting 7 20.0
2020-Jun-06 10:03 140 3 gusting 6 19.4
2020-Jun-06 09:46 196 2 gusting 9 18.9
2020-Jun-06 09:30 282 2 gusting 9 18.9
2020-Jun-06 09:15 195 5 gusting 13 18.3
2020-Jun-06 09:02 246 6 gusting 11 18.3
2020-Jun-06 08:47 191 5 gusting 10 18.3
2020-Jun-06 08:31 184 3 gusting 7 17.8
2020-Jun-06 08:16 134 1 gusting 6 17.2
2020-Jun-06 08:01 188 1 gusting 5 16.7
2020-Jun-06 07:47 226 1 gusting 3 16.1
2020-Jun-06 07:31 150 15.0
2020-Jun-06 07:16 345 0 gusting 1 15.6
2020-Jun-06 07:01 073 13.9
2020-Jun-06 06:47 011 13.3
2020-Jun-06 06:31 032 12.2
2020-Jun-06 06:16 341 0 gusting 1 12.2
2020-Jun-06 06:01 075 11.7
2020-Jun-06 05:46 035 1 gusting 3 11.1
2020-Jun-06 05:32 032 0 gusting 1 11.1
2020-Jun-06 05:17
2020-Jun-06 05:02
2020-Jun-06 04:47
2020-Jun-06 04:31
2020-Jun-06 04:16
2020-Jun-06 04:01 359 0 gusting 1 8.9
2020-Jun-06 03:46 007 9.4
2020-Jun-06 03:30 294 9.4
2020-Jun-06 03:15 345 9.4
2020-Jun-06 03:00 004 9.4
2020-Jun-06 02:45 340 10.0
2020-Jun-06 02:31 357 10.0
2020-Jun-06 02:15 357 10.0
2020-Jun-06 02:00 353 10.6
2020-Jun-06 01:46 350 11.1
2020-Jun-06 01:30 351 11.1
2020-Jun-06 01:15 350 11.1
2020-Jun-06 01:00 350 11.1
2020-Jun-06 00:45 299 11.7
2020-Jun-06 00:30 001 11.7
2020-Jun-06 00:15 001 12.2
2020-Jun-06 00:00 145 12.8
2020-Jun-05 23:46 157 12.8
2020-Jun-05 23:30 014 12.8
2020-Jun-05 23:15 014 12.8
2020-Jun-05 23:00 014 12.8
2020-Jun-05 22:45 014 12.8
2020-Jun-05 22:30 036 13.9
2020-Jun-05 22:16 339 14.4
2020-Jun-05 22:01 339 14.4
2020-Jun-05 21:46 339 14.4
2020-Jun-05 21:16 038 15.6
2020-Jun-05 21:01 036 16.1
2020-Jun-05 20:46 037 16.1
2020-Jun-05 20:16 300 1 gusting 3 17.2
2020-Jun-05 20:00 349 0 gusting 2 17.8
2020-Jun-05 19:45 285 18.3
2020-Jun-05 19:16 302 0 gusting 2 19.4
2020-Jun-05 19:00 259 2 gusting 6 20.0
2020-Jun-05 18:46 276 1 gusting 5 21.1
2020-Jun-05 18:15 324 2 gusting 10 21.1
2020-Jun-05 18:00 297 1 gusting 6 21.7
2020-Jun-05 17:46 245 5 gusting 10 21.7
2020-Jun-05 17:16 276 4 gusting 13 21.7
2020-Jun-05 17:01 299 3 gusting 12 21.7
2020-Jun-05 16:45 199 2 gusting 13 21.1
2020-Jun-05 16:15 176 1 gusting 8 22.2
2020-Jun-05 16:00 219 3 gusting 10 22.2
2020-Jun-05 15:45 246 2 gusting 7 21.7
2020-Jun-05 15:15 276 2 gusting 10 21.1
2020-Jun-05 15:00 202 2 gusting 8 21.7
2020-Jun-05 14:45 118 2 gusting 8 21.1
2020-Jun-05 14:15 103 2 gusting 10 20.6
2020-Jun-05 14:00 310 2 gusting 11 20.6
2020-Jun-05 13:45 224 1 gusting 8 21.1
2020-Jun-05 13:15 271 2 gusting 9 19.4
2020-Jun-05 13:00 300 2 gusting 6 19.4
2020-Jun-05 12:45 295 3 gusting 8 18.9
2020-Jun-05 12:15 065 2 gusting 6 18.9
2020-Jun-05 12:00 298 3 gusting 7 18.3
2020-Jun-05 11:45 304 2 gusting 7 17.8
2020-Jun-05 11:16 299 2 gusting 8 17.2
2020-Jun-05 11:02 300 5 gusting 11 16.7
2020-Jun-05 10:46 316 6 gusting 10 16.7
2020-Jun-05 10:16 300 2 gusting 6 16.7
2020-Jun-05 10:01 255 1 gusting 6 16.7
2020-Jun-05 09:47 204 3 gusting 6 16.1
2020-Jun-05 09:16 146 3 gusting 6 15.0
2020-Jun-05 09:00 048 2 gusting 7 13.9
2020-Jun-05 08:46 302 4 gusting 9 13.3
2020-Jun-05 08:15 236 0 gusting 4 13.3
2020-Jun-05 08:01 216 1 gusting 4 13.3
2020-Jun-05 07:46 317 0 gusting 5 12.2
2020-Jun-05 07:16 133 0 gusting 4 11.7
2020-Jun-05 07:00 117 0 gusting 3 11.7
2020-Jun-05 06:45 122 11.1
2020-Jun-05 06:16 097 10.6
2020-Jun-05 06:01 352 9.4
2020-Jun-05 05:46 160 10.0
2020-Jun-05 05:17
2020-Jun-05 05:01
2020-Jun-05 04:46
2020-Jun-05 04:16
2020-Jun-05 04:01 225 7.2
2020-Jun-05 03:45 195 8.3
2020-Jun-05 03:16 125 7.8
2020-Jun-05 03:01 206 8.3
2020-Jun-05 02:47 225 2 gusting 5 8.3
2020-Jun-05 02:15 358 0 gusting 10 8.9
2020-Jun-05 02:00 335 6 gusting 10 8.9
2020-Jun-05 01:46 354 6 gusting 9 8.3
2020-Jun-05 01:15 222 0 gusting 3 8.3
2020-Jun-05 01:01 304 1 gusting 6 8.9
2020-Jun-05 00:46 293 3 gusting 10 8.3
2020-Jun-05 00:15 302 0 gusting 6 9.4
2020-Jun-05 00:00 295 0 gusting 5 9.4
2020-Jun-04 23:45 341 0 gusting 4 9.4
2020-Jun-04 23:15 307 6 gusting 12 10.0
2020-Jun-04 23:00 328 5 gusting 9 10.6